Time;durP1;ratioP1;P1;durP2;ratioP2;P2;SDS_P1;SDS_P2;PMS_P1;PMS_P2;Temp;Humidity;BMP_temperature;BMP_pressure;BME280_temperature;BME280_humidity;BME280_pressure;Samples;Min_cycle;Max_cycle;Signal;HPM_P1;HPM_P2
2023/12/13 00:00:18;;;;;;;2.97;2.20;;;10.00;99.90;;;;;;5059398;28;20028;-35
2023/12/13 00:02:44;;;;;;;2.58;2.08;;;10.00;99.90;;;;;;5061100;28;20834;-35
2023/12/13 00:05:10;;;;;;;3.22;2.35;;;10.00;99.90;;;;;;5060982;28;20099;-36
2023/12/13 00:07:35;;;;;;;2.45;2.25;;;10.00;99.90;;;;;;5059527;28;20057;-36
2023/12/13 00:10:01;;;;;;;3.05;2.40;;;10.00;99.90;;;;;;5059358;28;20205;-36
2023/12/13 00:12:26;;;;;;;4.28;2.95;;;10.00;99.90;;;;;;5060987;28;20080;-35
2023/12/13 00:14:52;;;;;;;3.72;2.50;;;9.90;99.90;;;;;;5059238;28;20020;-36
2023/12/13 00:17:18;;;;;;;3.78;2.72;;;9.90;99.90;;;;;;5059537;28;20124;-35
2023/12/13 00:19:43;;;;;;;2.70;2.50;;;9.90;99.90;;;;;;5059637;28;20044;-36
2023/12/13 00:22:09;;;;;;;4.63;2.60;;;9.90;99.90;;;;;;5058835;28;20571;-35
2023/12/13 00:24:35;;;;;;;2.67;2.47;;;9.80;99.90;;;;;;5060636;28;20040;-36
2023/12/13 00:27:04;;;;;;;2.40;2.20;;;9.80;99.90;;;;;;5059520;28;20036;-35
2023/12/13 00:29:29;;;;;;;2.80;2.10;;;9.80;99.90;;;;;;5059022;28;20020;-36
2023/12/13 00:31:55;;;;;;;2.58;2.13;;;9.80;99.90;;;;;;5059671;28;20363;-36
2023/12/13 00:34:20;;;;;;;2.40;2.15;;;9.70;99.90;;;;;;5059678;28;20578;-36
2023/12/13 00:36:46;;;;;;;2.63;2.05;;;9.70;99.90;;;;;;5060225;28;20368;-43
2023/12/13 00:39:11;;;;;;;3.17;2.03;;;9.70;99.90;;;;;;5057048;28;20024;-36
2023/12/13 00:41:37;;;;;;;3.10;2.03;;;9.70;99.90;;;;;;5048393;28;20384;-36
2023/12/13 00:44:03;;;;;;;2.38;2.00;;;9.80;99.90;;;;;;5059813;28;20114;-36
2023/12/13 00:46:29;;;;;;;3.33;1.90;;;9.70;99.90;;;;;;5060477;28;20075;-35
2023/12/13 00:48:54;;;;;;;2.53;2.00;;;9.70;99.90;;;;;;5058437;28;20028;-35
2023/12/13 00:51:22;;;;;;;2.45;1.90;;;9.70;99.90;;;;;;5060203;28;20562;-35
2023/12/13 00:53:48;;;;;;;2.13;1.73;;;9.70;99.90;;;;;;5060145;28;20040;-36
2023/12/13 00:56:17;;;;;;;1.95;1.70;;;9.80;99.90;;;;;;5060196;28;20156;-35
2023/12/13 00:58:45;;;;;;;2.90;1.60;;;9.70;99.90;;;;;;5059136;28;20107;-35
2023/12/13 01:01:10;;;;;;;1.98;1.40;;;9.80;99.90;;;;;;5059990;28;20554;-36
2023/12/13 01:03:36;;;;;;;1.90;1.40;;;9.70;99.90;;;;;;5059930;28;20027;-35
2023/12/13 01:06:01;;;;;;;2.50;1.50;;;9.70;99.90;;;;;;5059924;28;20115;-35
2023/12/13 01:08:27;;;;;;;1.52;1.30;;;9.70;99.90;;;;;;5058247;28;20788;-36
2023/12/13 01:10:53;;;;;;;1.95;1.48;;;9.70;99.90;;;;;;5059000;28;20426;-36
2023/12/13 01:13:18;;;;;;;2.55;1.33;;;9.60;99.90;;;;;;5059978;28;20115;-38
2023/12/13 01:15:44;;;;;;;2.72;1.83;;;9.60;99.90;;;;;;5059986;28;20107;-36
2023/12/13 01:18:09;;;;;;;2.13;1.60;;;9.50;99.90;;;;;;5058415;28;20029;-36
2023/12/13 01:20:36;;;;;;;2.47;1.70;;;9.50;99.90;;;;;;5060544;28;20060;-36
2023/12/13 01:23:01;;;;;;;1.50;1.40;;;9.50;99.90;;;;;;5059395;28;20032;-36
2023/12/13 01:25:27;;;;;;;1.90;1.60;;;9.50;99.90;;;;;;5059550;28;20028;-36
2023/12/13 01:27:57;;;;;;;1.80;1.48;;;9.50;99.90;;;;;;5058715;28;20021;-36
2023/12/13 01:30:23;;;;;;;1.70;1.55;;;9.50;99.90;;;;;;5049255;28;20427;-36
2023/12/13 01:32:48;;;;;;;3.15;1.73;;;9.50;99.90;;;;;;5059478;28;20047;-35
2023/12/13 01:35:14;;;;;;;1.95;1.60;;;9.50;99.90;;;;;;5060153;28;20565;-35
2023/12/13 01:37:40;;;;;;;1.60;1.45;;;9.40;99.90;;;;;;5059205;28;20599;-36
2023/12/13 01:40:07;;;;;;;1.60;1.50;;;9.40;99.90;;;;;;5058087;28;20063;-36
2023/12/13 01:42:36;;;;;;;3.40;1.75;;;9.40;99.90;;;;;;5060449;28;20428;-36
2023/12/13 01:45:02;;;;;;;3.03;1.58;;;9.40;99.90;;;;;;5058400;28;20033;-35
2023/12/13 01:47:27;;;;;;;1.65;1.50;;;9.40;99.90;;;;;;5059591;28;20021;-35
2023/12/13 01:49:53;;;;;;;2.47;1.50;;;9.40;99.90;;;;;;5058143;28;20116;-35
2023/12/13 01:52:19;;;;;;;4.25;1.50;;;9.50;99.90;;;;;;5058747;28;20052;-36
2023/12/13 01:54:46;;;;;;;2.60;1.70;;;9.50;99.90;;;;;;5059427;28;20027;-36
2023/12/13 01:57:14;;;;;;;2.75;1.45;;;9.50;99.90;;;;;;5059038;28;20045;-35
2023/12/13 01:59:41;;;;;;;1.98;1.42;;;9.50;99.90;;;;;;5058376;28;20162;-45
2023/12/13 02:02:10;;;;;;;1.50;1.30;;;9.50;99.90;;;;;;5062844;28;20025;-36
2023/12/13 02:04:37;;;;;;;2.15;1.30;;;9.50;99.90;;;;;;5063047;28;20376;-36
2023/12/13 02:07:03;;;;;;;1.15;1.05;;;9.60;99.90;;;;;;5062408;28;20063;-36
2023/12/13 02:09:29;;;;;;;1.88;1.25;;;9.60;99.90;;;;;;5062218;28;20116;-36
2023/12/13 02:11:55;;;;;;;1.75;1.23;;;9.60;99.90;;;;;;5062290;28;20593;-36
2023/12/13 02:14:21;;;;;;;2.03;1.00;;;9.60;99.90;;;;;;5062868;28;20023;-36
2023/12/13 02:16:47;;;;;;;1.35;1.20;;;9.60;99.90;;;;;;5062417;28;20036;-37
2023/12/13 02:19:12;;;;;;;2.22;1.20;;;9.60;99.90;;;;;;5061923;28;20070;-35
2023/12/13 02:21:38;;;;;;;3.28;1.45;;;9.60;99.90;;;;;;5062289;28;20032;-37
2023/12/13 02:24:05;;;;;;;3.47;1.20;;;9.60;99.90;;;;;;5063112;28;20027;-37
2023/12/13 02:26:31;;;;;;;1.63;1.20;;;9.60;99.90;;;;;;5063002;28;20145;-37
2023/12/13 02:28:58;;;;;;;1.95;1.13;;;9.60;99.90;;;;;;5060984;28;20021;-38
2023/12/13 02:31:25;;;;;;;1.27;1.10;;;9.60;99.90;;;;;;5062850;28;20086;-36
2023/12/13 02:33:51;;;;;;;1.67;1.10;;;9.60;99.90;;;;;;5061710;28;20016;-36
2023/12/13 02:36:16;;;;;;;1.65;0.90;;;9.60;99.90;;;;;;5062177;28;20379;-42
2023/12/13 02:38:42;;;;;;;1.35;1.08;;;9.60;99.90;;;;;;5061658;28;20494;-36
2023/12/13 02:41:08;;;;;;;1.58;1.00;;;9.60;99.90;;;;;;5060212;28;20614;-36
2023/12/13 02:43:34;;;;;;;1.02;0.73;;;9.60;99.90;;;;;;5062093;28;20025;-36
2023/12/13 02:46:00;;;;;;;1.40;1.13;;;9.70;99.90;;;;;;5061700;28;20024;-36
2023/12/13 02:48:26;;;;;;;1.27;0.90;;;9.60;99.90;;;;;;5061778;28;20027;-37
2023/12/13 02:50:52;;;;;;;1.85;1.23;;;9.70;99.90;;;;;;5060836;28;20061;-35
2023/12/13 02:53:19;;;;;;;2.35;1.20;;;9.70;99.90;;;;;;5062767;28;20074;-35
2023/12/13 02:55:51;;;;;;;1.30;1.20;;;9.70;99.90;;;;;;5061111;28;20440;-36
2023/12/13 02:58:16;;;;;;;1.53;1.20;;;9.70;99.90;;;;;;5051795;28;20060;-36
2023/12/13 03:00:42;;;;;;;2.47;1.10;;;9.80;99.90;;;;;;5061210;28;21134;-36
2023/12/13 03:03:08;;;;;;;2.72;1.17;;;9.80;99.90;;;;;;5061768;28;20073;-36
2023/12/13 03:05:35;;;;;;;1.35;1.00;;;9.80;99.90;;;;;;5063210;28;20052;-36
2023/12/13 03:08:01;;;;;;;1.10;1.00;;;9.70;99.90;;;;;;5061695;28;20043;-36
2023/12/13 03:10:27;;;;;;;1.95;1.30;;;9.80;99.90;;;;;;5061163;28;20655;-36
2023/12/13 03:12:53;;;;;;;1.77;1.02;;;9.80;99.90;;;;;;5060900;28;20388;-36
2023/12/13 03:15:19;;;;;;;2.17;0.90;;;9.80;99.90;;;;;;5062669;28;20029;-41
2023/12/13 03:17:44;;;;;;;1.58;1.00;;;9.80;99.90;;;;;;5060940;28;20032;-36
2023/12/13 03:20:11;;;;;;;1.65;1.10;;;9.80;99.90;;;;;;5061117;28;20638;-36
2023/12/13 03:22:40;;;;;;;1.33;0.95;;;9.80;99.90;;;;;;5061408;28;20048;-36
2023/12/13 03:25:06;;;;;;;1.60;1.05;;;9.80;99.90;;;;;;5060876;28;20025;-36
2023/12/13 03:27:31;;;;;;;2.25;1.15;;;9.80;99.90;;;;;;5061483;28;20494;-35
2023/12/13 03:29:57;;;;;;;2.40;0.90;;;9.80;99.90;;;;;;5060769;28;20020;-35
2023/12/13 03:32:22;;;;;;;2.40;1.27;;;9.80;99.90;;;;;;5061083;28;20452;-36
2023/12/13 03:34:48;;;;;;;1.20;1.10;;;9.80;99.90;;;;;;5062235;28;20063;-36
2023/12/13 03:37:16;;;;;;;1.98;1.10;;;9.80;99.90;;;;;;5061132;28;20028;-35
2023/12/13 03:39:42;;;;;;;1.10;1.00;;;9.70;99.90;;;;;;5061587;28;20024;-38
2023/12/13 03:42:07;;;;;;;1.63;1.13;;;9.80;99.90;;;;;;5055590;28;20866;-36
2023/12/13 03:44:33;;;;;;;2.00;1.20;;;9.80;99.90;;;;;;5061343;28;20021;-36
2023/12/13 03:46:59;;;;;;;1.55;1.17;;;9.80;99.90;;;;;;5061016;28;20481;-37
2023/12/13 03:49:24;;;;;;;3.33;1.30;;;9.70;99.90;;;;;;5065782;28;20119;-36
2023/12/13 03:51:50;;;;;;;1.55;1.13;;;9.80;99.90;;;;;;5057902;28;20151;-36
2023/12/13 03:54:15;;;;;;;1.45;1.23;;;9.80;99.90;;;;;;5059420;28;20021;-35
2023/12/13 03:56:41;;;;;;;1.40;1.20;;;9.80;99.90;;;;;;5060834;28;20082;-35
2023/12/13 03:59:07;;;;;;;1.38;1.27;;;9.80;99.90;;;;;;5060475;28;20028;-36
2023/12/13 04:01:33;;;;;;;1.42;1.20;;;9.80;99.90;;;;;;5060948;28;20346;-37
2023/12/13 04:03:59;;;;;;;1.25;1.15;;;9.80;99.90;;;;;;5060545;28;20028;-35
2023/12/13 04:06:24;;;;;;;1.45;1.35;;;9.80;99.90;;;;;;5059781;28;20460;-36
2023/12/13 04:08:50;;;;;;;1.73;1.60;;;9.80;99.90;;;;;;5060304;28;20023;-37
2023/12/13 04:11:15;;;;;;;2.20;1.70;;;9.80;99.90;;;;;;5060594;28;20036;-35
2023/12/13 04:13:44;;;;;;;1.70;1.60;;;9.80;99.90;;;;;;5060088;28;20144;-36
2023/12/13 04:16:10;;;;;;;2.65;1.85;;;9.80;99.90;;;;;;5060985;28;20020;-35
2023/12/13 04:18:36;;;;;;;1.98;1.77;;;9.80;99.90;;;;;;5060622;28;20027;-36
2023/12/13 04:21:02;;;;;;;3.58;1.80;;;9.80;99.90;;;;;;5059302;28;20024;-36
2023/12/13 04:23:27;;;;;;;3.13;1.90;;;9.80;99.90;;;;;;5059953;28;20035;-36
2023/12/13 04:25:56;;;;;;;2.03;1.70;;;9.80;99.90;;;;;;5060498;28;20391;-36
2023/12/13 04:28:21;;;;;;;1.88;1.67;;;9.80;99.90;;;;;;5060095;28;20035;-36
2023/12/13 04:30:47;;;;;;;2.13;1.90;;;9.80;99.90;;;;;;5059700;28;20036;-35
2023/12/13 04:33:18;;;;;;;2.40;2.13;;;9.80;99.90;;;;;;5060213;28;20025;-35
2023/12/13 04:35:44;;;;;;;2.65;1.77;;;9.80;99.90;;;;;;5060112;28;20024;-36
2023/12/13 04:38:09;;;;;;;2.85;2.05;;;9.80;99.90;;;;;;5059686;28;20040;-36
2023/12/13 04:40:35;;;;;;;2.90;2.08;;;9.80;99.90;;;;;;5059055;28;20032;-36
2023/12/13 04:43:02;;;;;;;2.08;1.77;;;9.80;99.90;;;;;;5059776;28;20035;-36
2023/12/13 04:45:27;;;;;;;2.42;2.00;;;9.80;99.90;;;;;;5060234;28;20059;-36
2023/12/13 04:47:53;;;;;;;3.03;2.60;;;9.80;99.90;;;;;;5059268;28;20135;-36
2023/12/13 04:50:18;;;;;;;2.75;2.03;;;9.80;99.90;;;;;;5058881;28;20021;-36
2023/12/13 04:52:44;;;;;;;2.92;2.40;;;9.80;99.90;;;;;;5059329;28;20553;-36
2023/12/13 04:55:10;;;;;;;3.80;2.17;;;9.80;99.90;;;;;;5058823;28;20036;-36
2023/12/13 04:57:35;;;;;;;3.53;2.13;;;9.80;99.90;;;;;;5059410;28;20046;-36
2023/12/13 05:00:01;;;;;;;3.00;2.13;;;9.90;99.90;;;;;;5058810;28;20475;-36
2023/12/13 05:02:26;;;;;;;2.50;1.95;;;9.90;99.90;;;;;;5059503;28;20017;-36
2023/12/13 05:04:52;;;;;;;2.65;2.45;;;9.90;99.90;;;;;;5059684;28;20074;-36
2023/12/13 05:07:18;;;;;;;3.05;2.25;;;9.90;99.90;;;;;;5059529;28;20032;-36
2023/12/13 05:09:43;;;;;;;4.40;2.38;;;9.90;99.90;;;;;;5059548;28;20016;-35
2023/12/13 05:12:09;;;;;;;3.05;2.15;;;9.90;99.90;;;;;;5059926;28;20039;-36
2023/12/13 05:14:35;;;;;;;3.35;2.30;;;9.90;99.90;;;;;;5060687;28;20113;-36
2023/12/13 05:17:00;;;;;;;3.53;2.05;;;9.90;99.90;;;;;;5057263;28;20033;-36
2023/12/13 05:19:26;;;;;;;2.75;2.10;;;9.90;99.90;;;;;;5058955;28;20127;-37
2023/12/13 05:21:51;;;;;;;3.05;2.00;;;9.90;99.90;;;;;;5058785;28;20028;-37
2023/12/13 05:24:17;;;;;;;4.20;2.13;;;9.90;99.90;;;;;;5058121;28;20495;-36
2023/12/13 05:26:43;;;;;;;4.38;2.55;;;9.90;99.90;;;;;;5059316;28;20480;-36
2023/12/13 05:29:08;;;;;;;2.75;1.88;;;9.80;99.90;;;;;;5059616;28;20649;-36
2023/12/13 05:31:34;;;;;;;2.70;2.50;;;9.90;99.90;;;;;;5059133;28;20017;-36
2023/12/13 05:34:00;;;;;;;3.35;2.25;;;9.90;99.90;;;;;;5058988;28;20018;-37
2023/12/13 05:36:26;;;;;;;3.42;2.70;;;9.90;99.90;;;;;;5063885;28;20480;-37
2023/12/13 05:38:52;;;;;;;3.90;2.40;;;9.90;99.90;;;;;;5055596;28;20021;-36
2023/12/13 05:41:17;;;;;;;4.38;3.35;;;9.90;99.90;;;;;;5060651;28;20025;-36
2023/12/13 05:43:43;;;;;;;2.92;2.47;;;9.90;99.90;;;;;;5062768;28;20569;-36
2023/12/13 05:46:08;;;;;;;4.78;2.35;;;9.90;99.90;;;;;;5063514;28;20426;-37
2023/12/13 05:48:34;;;;;;;3.05;2.42;;;10.00;99.90;;;;;;5062221;28;20475;-36
2023/12/13 05:51:00;;;;;;;2.50;2.30;;;10.00;99.90;;;;;;5062749;28;20067;-37
2023/12/13 05:53:25;;;;;;;3.72;2.70;;;10.00;99.90;;;;;;5063809;28;20031;-36
2023/12/13 05:55:51;;;;;;;2.40;2.20;;;10.00;99.90;;;;;;5062469;28;20671;-36
2023/12/13 05:58:17;;;;;;;3.75;2.40;;;10.00;99.90;;;;;;5062141;28;20036;-36
2023/12/13 06:00:42;;;;;;;3.15;2.55;;;10.00;99.90;;;;;;5061118;28;20503;-36
2023/12/13 06:03:09;;;;;;;4.82;2.70;;;9.90;99.90;;;;;;5062371;28;20414;-36
2023/12/13 06:05:37;;;;;;;4.70;2.20;;;9.90;99.90;;;;;;5062949;28;20037;-40
2023/12/13 06:08:03;;;;;;;4.35;2.88;;;9.90;99.90;;;;;;5062302;28;20464;-36
2023/12/13 06:10:29;;;;;;;4.65;2.88;;;9.90;99.90;;;;;;5062349;28;20031;-37
2023/12/13 06:12:54;;;;;;;3.05;2.45;;;9.90;99.90;;;;;;5059381;28;20041;-36
2023/12/13 06:15:23;;;;;;;3.35;2.90;;;9.90;99.90;;;;;;5061094;28;20024;-35
2023/12/13 06:17:49;;;;;;;4.05;2.58;;;9.90;99.90;;;;;;5061412;28;20024;-36
2023/12/13 06:20:15;;;;;;;4.65;2.40;;;9.90;99.90;;;;;;5062509;28;20292;-37
2023/12/13 06:22:40;;;;;;;3.60;2.30;;;9.90;99.90;;;;;;5062332;28;20509;-36
2023/12/13 06:25:06;;;;;;;2.85;2.25;;;9.90;99.90;;;;;;5062301;28;20095;-37
2023/12/13 06:27:33;;;;;;;3.75;2.65;;;9.90;99.90;;;;;;5062265;28;20205;-36
2023/12/13 06:29:58;;;;;;;4.47;2.67;;;9.90;99.90;;;;;;5059057;28;20405;-37
2023/12/13 06:32:24;;;;;;;5.50;2.70;;;9.90;99.90;;;;;;5061936;28;20727;-36
2023/12/13 06:34:50;;;;;;;7.47;2.88;;;9.90;99.90;;;;;;5059046;28;20024;-36
2023/12/13 06:37:15;;;;;;;4.70;2.75;;;9.90;99.90;;;;;;5063012;28;20843;-35
2023/12/13 06:39:41;;;;;;;4.13;2.10;;;9.90;99.90;;;;;;5062213;28;20044;-36
2023/12/13 06:42:09;;;;;;;4.15;2.40;;;9.90;99.90;;;;;;5063014;28;20032;-35
2023/12/13 06:44:39;;;;;;;4.72;2.42;;;9.90;99.90;;;;;;5061332;28;20131;-35
2023/12/13 06:47:05;;;;;;;4.90;2.55;;;9.90;99.90;;;;;;5056502;28;20107;-36
2023/12/13 06:49:32;;;;;;;3.33;2.65;;;9.90;99.90;;;;;;5061929;28;20020;-35
2023/12/13 06:51:58;;;;;;;3.67;2.88;;;9.90;99.90;;;;;;5060777;28;20140;-36
2023/12/13 06:54:24;;;;;;;4.47;3.13;;;9.90;99.90;;;;;;5060635;28;20094;-36
2023/12/13 06:56:49;;;;;;;4.32;2.58;;;9.90;99.90;;;;;;5060980;28;20472;-39
2023/12/13 06:59:15;;;;;;;6.15;3.08;;;9.90;99.90;;;;;;5061205;28;20031;-35
2023/12/13 07:01:41;;;;;;;7.45;3.08;;;10.00;99.90;;;;;;5060332;28;20017;-36
2023/12/13 07:04:07;;;;;;;4.82;2.80;;;10.00;99.90;;;;;;5060375;28;20675;-37
2023/12/13 07:06:33;;;;;;;4.78;3.17;;;10.00;99.90;;;;;;5060341;28;20102;-36
2023/12/13 07:08:59;;;;;;;6.72;3.47;;;10.00;99.90;;;;;;5060782;28;20036;-36
2023/12/13 07:11:25;;;;;;;4.65;3.13;;;10.00;99.90;;;;;;5061201;28;20769;-36
2023/12/13 07:13:50;;;;;;;5.43;3.17;;;10.00;99.90;;;;;;5059612;28;20029;-36
2023/12/13 07:16:16;;;;;;;6.15;3.50;;;10.00;99.90;;;;;;5058656;28;20048;-36
2023/12/13 07:18:42;;;;;;;5.03;3.38;;;10.00;99.90;;;;;;5060921;28;20035;-36
2023/12/13 07:21:08;;;;;;;4.03;3.00;;;10.00;99.90;;;;;;5061355;28;20029;-35
2023/12/13 07:23:35;;;;;;;5.43;2.85;;;10.00;99.90;;;;;;5059771;28;20361;-36
2023/12/13 07:26:01;;;;;;;5.60;3.28;;;10.00;99.90;;;;;;5060240;28;20017;-35
2023/12/13 07:28:27;;;;;;;5.53;3.22;;;10.00;99.90;;;;;;5061841;28;20416;-36
2023/12/13 07:30:52;;;;;;;6.72;3.55;;;10.00;99.90;;;;;;5059854;28;20506;-36
2023/12/13 07:33:18;;;;;;;4.55;3.30;;;10.00;99.90;;;;;;5061739;28;20097;-36
2023/12/13 07:35:47;;;;;;;5.10;3.38;;;10.00;99.90;;;;;;5060877;28;20075;-37
2023/12/13 07:38:14;;;;;;;6.80;3.65;;;10.00;99.90;;;;;;5060552;28;20124;-36
2023/12/13 07:40:39;;;;;;;5.85;3.60;;;10.00;99.90;;;;;;5061184;28;20067;-35
2023/12/13 07:43:05;;;;;;;6.32;3.80;;;10.00;99.90;;;;;;5059420;28;20033;-36
2023/12/13 07:45:31;;;;;;;5.75;3.53;;;10.00;99.90;;;;;;5059802;28;20382;-36
2023/12/13 07:47:57;;;;;;;4.95;3.42;;;10.00;99.90;;;;;;5058861;28;20064;-35
2023/12/13 07:50:23;;;;;;;5.97;3.45;;;10.10;99.90;;;;;;5043394;28;20132;-36
2023/12/13 07:52:48;;;;;;;5.22;3.50;;;10.10;99.90;;;;;;5060332;28;20111;-36
2023/12/13 07:55:18;;;;;;;5.95;3.05;;;10.10;99.90;;;;;;5059913;28;20521;-35
2023/12/13 07:57:44;;;;;;;5.32;2.83;;;10.10;99.90;;;;;;5059046;28;20036;-36
2023/12/13 08:00:11;;;;;;;3.45;2.83;;;10.10;99.90;;;;;;5060165;28;20066;-36
2023/12/13 08:02:36;;;;;;;4.35;3.33;;;10.10;99.90;;;;;;5061391;28;20686;-36
2023/12/13 08:05:02;;;;;;;5.28;2.67;;;10.10;99.90;;;;;;5060335;28;20025;-36
2023/12/13 08:07:27;;;;;;;4.68;2.90;;;10.10;99.90;;;;;;5060734;28;20027;-36
2023/12/13 08:09:54;;;;;;;4.65;2.85;;;10.10;99.90;;;;;;5059968;28;20035;-36
2023/12/13 08:12:20;;;;;;;8.02;2.65;;;10.10;99.90;;;;;;5060654;28;20031;-36
2023/12/13 08:14:45;;;;;;;6.07;2.90;;;10.10;99.90;;;;;;5060429;28;20025;-36
2023/12/13 08:17:11;;;;;;;6.82;2.90;;;10.10;99.90;;;;;;5060854;28;20126;-37
2023/12/13 08:19:37;;;;;;;4.97;3.10;;;10.10;99.90;;;;;;5059964;28;20154;-36
2023/12/13 08:22:03;;;;;;;3.03;2.35;;;10.10;99.90;;;;;;5059472;28;20131;-37
2023/12/13 08:24:29;;;;;;;5.18;2.72;;;10.10;99.90;;;;;;5060163;28;20062;-36
2023/12/13 08:26:55;;;;;;;4.22;2.60;;;10.10;99.90;;;;;;5059207;28;20024;-35
2023/12/13 08:29:20;;;;;;;4.13;2.50;;;10.10;99.90;;;;;;5060974;28;20027;-36
2023/12/13 08:31:46;;;;;;;3.95;2.50;;;10.10;99.90;;;;;;5059959;28;20024;-36
2023/12/13 08:34:12;;;;;;;3.00;2.22;;;10.10;99.90;;;;;;5059514;28;20082;-37
2023/12/13 08:36:38;;;;;;;6.88;2.53;;;10.10;99.90;;;;;;5060884;28;20047;-36
2023/12/13 08:39:03;;;;;;;3.13;2.33;;;10.10;99.90;;;;;;5060143;28;20012;-37
2023/12/13 08:41:29;;;;;;;3.88;2.47;;;10.10;99.90;;;;;;5060284;28;20036;-36
2023/12/13 08:43:55;;;;;;;4.63;2.45;;;10.10;99.90;;;;;;5059813;28;20146;-37
2023/12/13 08:46:20;;;;;;;2.92;2.38;;;10.10;99.90;;;;;;5060502;28;20032;-37
2023/12/13 08:48:46;;;;;;;3.50;2.40;;;10.20;99.90;;;;;;5059250;28;20032;-37
2023/12/13 08:51:12;;;;;;;2.75;2.13;;;10.10;99.90;;;;;;5059707;28;20166;-36
2023/12/13 08:53:38;;;;;;;4.15;2.30;;;10.20;99.90;;;;;;5059388;28;20111;-36
2023/12/13 08:56:06;;;;;;;4.50;2.60;;;10.10;99.90;;;;;;5058823;28;20379;-36
2023/12/13 08:58:32;;;;;;;4.18;2.80;;;10.10;99.90;;;;;;5060319;28;20076;-38
2023/12/13 09:00:58;;;;;;;6.85;2.75;;;10.20;99.90;;;;;;5059643;28;20129;-37
2023/12/13 09:03:23;;;;;;;4.50;2.40;;;10.10;99.90;;;;;;5060434;28;20119;-42
2023/12/13 09:05:49;;;;;;;4.13;3.00;;;10.20;99.90;;;;;;5060065;28;20042;-39
2023/12/13 09:08:15;;;;;;;4.13;2.30;;;10.20;99.90;;;;;;5058584;28;20381;-37
2023/12/13 09:10:41;;;;;;;4.85;2.38;;;10.20;99.90;;;;;;5059317;28;20037;-37
2023/12/13 09:13:06;;;;;;;5.10;2.50;;;10.20;99.90;;;;;;5060316;28;20024;-37
2023/12/13 09:15:32;;;;;;;4.60;2.20;;;10.20;99.90;;;;;;5059137;28;20033;-37
2023/12/13 09:18:01;;;;;;;4.03;2.60;;;10.20;99.90;;;;;;5058886;28;20043;-36
2023/12/13 09:20:32;;;;;;;5.03;2.80;;;10.20;99.90;;;;;;5056106;28;20029;-37
2023/12/13 09:22:58;;;;;;;3.03;2.27;;;10.20;99.90;;;;;;5057780;28;20916;-37
2023/12/13 09:25:25;;;;;;;3.97;2.45;;;10.20;99.90;;;;;;5058266;28;20020;-36
2023/12/13 09:27:51;;;;;;;4.25;2.78;;;10.30;99.90;;;;;;5058085;28;20044;-37
2023/12/13 09:30:16;;;;;;;2.97;2.40;;;10.30;99.90;;;;;;5058284;28;20094;-37
2023/12/13 09:32:45;;;;;;;2.55;2.25;;;10.30;99.90;;;;;;5057798;28;20028;-37
2023/12/13 09:35:10;;;;;;;3.65;2.70;;;10.40;99.90;;;;;;5058151;28;20411;-35
2023/12/13 09:37:36;;;;;;;3.85;2.42;;;10.40;99.90;;;;;;5059582;28;20593;-37
2023/12/13 09:40:02;;;;;;;2.72;2.28;;;10.30;99.90;;;;;;5058715;28;20811;-37
2023/12/13 09:42:29;;;;;;;5.10;3.17;;;10.40;99.90;;;;;;5069239;28;20501;-37
2023/12/13 09:44:55;;;;;;;3.50;2.45;;;10.40;99.90;;;;;;5068949;28;20542;-36
2023/12/13 09:47:25;;;;;;;3.88;2.60;;;10.40;99.90;;;;;;5059052;28;20036;-36
2023/12/13 09:49:52;;;;;;;3.08;2.60;;;10.40;99.90;;;;;;5058030;28;20021;-40
2023/12/13 09:52:19;;;;;;;7.68;3.00;;;10.30;99.90;;;;;;5059960;28;20147;-37
2023/12/13 09:54:46;;;;;;;4.60;2.80;;;10.30;99.90;;;;;;5058678;28;20098;-36
2023/12/13 09:57:11;;;;;;;4.18;2.70;;;10.30;99.90;;;;;;5058332;28;20037;-37
2023/12/13 09:59:38;;;;;;;3.92;2.45;;;10.30;99.90;;;;;;5059022;28;20725;-36
2023/12/13 10:02:10;;;;;;;3.95;2.50;;;10.30;99.90;;;;;;5059812;28;20040;-42
2023/12/13 10:04:36;;;;;;;5.60;2.70;;;10.30;99.90;;;;;;5058941;28;20354;-35
2023/12/13 10:07:05;;;;;;;3.83;2.60;;;10.30;99.90;;;;;;5058642;28;20070;-37
2023/12/13 10:09:31;;;;;;;4.78;3.08;;;10.30;99.90;;;;;;5059482;28;20115;-37
2023/12/13 10:11:58;;;;;;;5.07;2.38;;;10.30;99.90;;;;;;5058195;28;20028;-37
2023/12/13 10:14:24;;;;;;;3.22;2.47;;;10.30;99.90;;;;;;5059473;28;20017;-37
2023/12/13 10:16:50;;;;;;;3.45;2.35;;;10.30;99.90;;;;;;5059057;28;20047;-37
2023/12/13 10:19:16;;;;;;;3.40;2.50;;;10.30;99.90;;;;;;5058756;28;20051;-37
2023/12/13 10:21:42;;;;;;;4.57;2.70;;;10.30;99.90;;;;;;5059531;28;20029;-37
2023/12/13 10:24:07;;;;;;;4.10;2.95;;;10.30;99.90;;;;;;5063054;28;20056;-36
2023/12/13 10:26:38;;;;;;;5.15;2.75;;;10.30;99.90;;;;;;5061935;28;20067;-36
2023/12/13 10:29:04;;;;;;;3.63;2.80;;;10.30;99.90;;;;;;5062626;28;20035;-36
2023/12/13 10:31:33;;;;;;;5.45;3.17;;;10.40;99.90;;;;;;5062945;28;20033;-37
2023/12/13 10:33:58;;;;;;;3.50;3.00;;;10.40;99.90;;;;;;5061994;28;20021;-37
2023/12/13 10:36:26;;;;;;;3.20;2.60;;;10.40;99.90;;;;;;5062823;28;20021;-37
2023/12/13 10:38:53;;;;;;;4.40;2.90;;;10.40;99.90;;;;;;5062126;28;20040;-38
2023/12/13 10:41:25;;;;;;;6.05;3.65;;;10.40;99.90;;;;;;5062258;28;20017;-37
2023/12/13 10:43:54;;;;;;;4.50;2.95;;;10.50;99.90;;;;;;5051543;28;20040;-37
2023/12/13 10:46:21;;;;;;;2.45;2.25;;;10.50;99.90;;;;;;5062055;28;20233;-37
2023/12/13 10:48:47;;;;;;;3.00;2.70;;;10.40;99.90;;;;;;5062677;28;20029;-37
2023/12/13 10:51:15;;;;;;;2.65;2.45;;;10.50;99.90;;;;;;5061833;28;20053;-37
2023/12/13 10:53:42;;;;;;;3.33;2.20;;;10.40;99.90;;;;;;5057502;28;20844;-37
2023/12/13 10:56:08;;;;;;;2.90;1.90;;;10.50;99.90;;;;;;5061620;28;20193;-37
2023/12/13 10:58:35;;;;;;;4.00;1.95;;;10.50;99.90;;;;;;5061269;28;20064;-36
2023/12/13 11:01:02;;;;;;;2.13;1.92;;;10.50;99.90;;;;;;5061907;28;20107;-37
2023/12/13 11:03:54;;;;;;;1.92;1.60;;;10.40;99.90;;;;;;5062531;28;20024;-37
2023/12/13 11:06:21;;;;;;;2.07;1.60;;;10.40;99.90;;;;;;5062508;28;20981;-37
2023/12/13 11:09:07;;;;;;;1.90;1.40;;;10.40;99.90;;;;;;5061300;28;20028;-37
2023/12/13 11:11:34;;;;;;;1.75;1.55;;;10.40;99.90;;;;;;5062266;28;20024;-37
2023/12/13 11:14:01;;;;;;;4.18;2.10;;;10.30;99.90;;;;;;5061176;28;20470;-37
2023/12/13 11:16:27;;;;;;;5.03;2.70;;;10.30;99.90;;;;;;5061638;28;20029;-37
2023/12/13 11:18:56;;;;;;;3.83;2.35;;;10.40;99.90;;;;;;5061414;28;20051;-36
2023/12/13 11:21:30;;;;;;;3.97;2.10;;;10.40;99.90;;;;;;5041854;28;20090;-37
2023/12/13 11:24:10;;;;;;;2.47;1.52;;;10.40;99.90;;;;;;5056618;28;20672;-37
2023/12/13 11:26:39;;;;;;;1.70;1.60;;;10.40;99.90;;;;;;5041923;28;20029;-36
2023/12/13 11:29:13;;;;;;;3.15;1.60;;;10.30;99.90;;;;;;5055751;28;20027;-37
2023/12/13 11:31:48;;;;;;;2.20;1.80;;;10.30;99.90;;;;;;5061769;28;20085;-37
2023/12/13 11:34:14;;;;;;;2.13;1.50;;;10.30;99.90;;;;;;5061467;28;20021;-42
2023/12/13 11:36:42;;;;;;;3.55;1.95;;;10.30;99.90;;;;;;5060789;28;20101;-37
2023/12/13 11:39:08;;;;;;;2.17;1.85;;;10.30;99.90;;;;;;5061304;28;20025;-37
2023/12/13 11:41:36;;;;;;;3.17;1.83;;;10.30;99.90;;;;;;5061729;28;20035;-37
2023/12/13 11:44:02;;;;;;;2.72;2.10;;;10.30;99.90;;;;;;5060361;28;20375;-37
2023/12/13 11:46:30;;;;;;;2.10;1.90;;;10.30;99.90;;;;;;5060936;28;20020;-36
2023/12/13 11:48:56;;;;;;;2.67;1.95;;;10.20;99.90;;;;;;5060078;28;20798;-37
2023/12/13 11:51:22;;;;;;;2.33;1.85;;;10.20;99.90;;;;;;5059933;28;20057;-37
2023/12/13 11:53:49;;;;;;;2.40;1.73;;;10.20;99.90;;;;;;5060028;28;20020;-36
2023/12/13 11:56:18;;;;;;;1.90;1.70;;;10.20;99.90;;;;;;5060655;28;20024;-37
2023/12/13 11:58:43;;;;;;;2.53;1.90;;;10.30;99.90;;;;;;5060560;28;20028;-38
2023/12/13 12:01:11;;;;;;;2.10;1.83;;;10.20;99.90;;;;;;5060769;28;20447;-36
2023/12/13 12:03:37;;;;;;;3.00;2.30;;;10.20;99.90;;;;;;5059460;28;20055;-36
2023/12/13 12:06:16;;;;;;;2.45;2.22;;;10.30;99.90;;;;;;5058839;28;20103;-37
2023/12/13 12:08:42;;;;;;;1.95;1.58;;;10.20;99.90;;;;;;5060297;28;20028;-37
2023/12/13 12:11:08;;;;;;;3.22;2.10;;;10.20;99.90;;;;;;5059196;28;20020;-37
2023/12/13 12:13:33;;;;;;;2.05;1.83;;;10.20;99.90;;;;;;5060173;28;20457;-38
2023/12/13 12:16:00;;;;;;;2.25;1.75;;;10.20;99.90;;;;;;5059761;28;20031;-36
2023/12/13 12:18:29;;;;;;;2.38;1.70;;;10.20;99.90;;;;;;5060347;28;20032;-36
2023/12/13 12:20:55;;;;;;;3.08;2.03;;;10.20;99.90;;;;;;5059691;28;20047;-36
2023/12/13 12:23:25;;;;;;;3.45;1.98;;;10.10;99.90;;;;;;5061276;28;20028;-38
2023/12/13 12:25:53;;;;;;;3.80;2.50;;;10.10;99.90;;;;;;5058708;28;20034;-36
2023/12/13 12:28:18;;;;;;;3.47;2.13;;;10.10;99.90;;;;;;5060245;28;20569;-36
2023/12/13 12:30:46;;;;;;;3.28;2.20;;;10.10;99.90;;;;;;5059646;28;20061;-36
2023/12/13 12:33:13;;;;;;;2.83;2.22;;;10.10;99.90;;;;;;5059876;28;20036;-36
2023/12/13 12:35:39;;;;;;;3.60;2.40;;;10.10;99.90;;;;;;5059594;28;20056;-36
2023/12/13 12:38:08;;;;;;;3.40;2.45;;;10.10;99.90;;;;;;5059808;28;20102;-35
2023/12/13 12:40:34;;;;;;;3.05;2.58;;;10.10;99.90;;;;;;5059084;28;20566;-35
2023/12/13 12:43:00;;;;;;;4.28;3.33;;;10.10;99.90;;;;;;5059090;28;20028;-39
2023/12/13 12:45:26;;;;;;;3.97;2.95;;;10.20;99.90;;;;;;5059092;28;20303;-37
2023/12/13 12:47:51;;;;;;;3.88;3.00;;;10.20;99.90;;;;;;5058548;28;20033;-36